Terminal Aerodrome Forecast
Issued by NWS

Home | Current Version | Previous Version | Graphics & Text | Print | Product List | Glossary On
Versions: 1 2 3 4 5 6 7 8 9 10 11 12 13 14 15 16 17
000
FTUS42 KMHX 271720
TAFPGV
TAF
KPGV 271720Z 2718/2818 19009KT 5SM HZ VCTS SCT030CB BKN040
     FM280200 18008KT P6SM BKN050
     FM280600 VRB04KT P6SM BKN050 BKN130
      AMD LTD TO CLD VIS AND WIND=

USA.gov is the U.S. government's official web portal to all federal, state and local government web resources and services.